Time;durP1;ratioP1;P1;durP2;ratioP2;P2;SDS_P1;SDS_P2;PMS_P1;PMS_P2;Temp;Humidity;BMP_temperature;BMP_pressure;BME280_temperature;BME280_humidity;BME280_pressure;Samples;Min_cycle;Max_cycle;Signal;HPM_P1;HPM_P2
2023/04/25 00:02:15;;;;;;;2.47;1.55;;;;;;;;;;5109209;28;20632;-76
2023/04/25 00:04:41;;;;;;;1.67;1.42;;;;;;;;;;5101506;28;20460;-78
2023/04/25 00:07:07;;;;;;;3.03;1.85;;;;;;;;;;5090882;28;20069;-76
2023/04/25 00:09:33;;;;;;;2.35;1.45;;;;;;;;;;5091665;28;20031;-75
2023/04/25 00:11:59;;;;;;;2.47;1.48;;;;;;;;;;5089684;28;20020;-77
2023/04/25 00:14:25;;;;;;;2.97;1.60;;;;;;;;;;5094764;28;20036;-74
2023/04/25 00:16:51;;;;;;;5.97;2.03;;;;;;;;;;5091418;28;20062;-76
2023/04/25 00:19:17;;;;;;;1.77;1.40;;;;;;;;;;5092306;28;20198;-76
2023/04/25 00:21:46;;;;;;;2.97;1.30;;;;;;;;;;5096412;28;20048;-75
2023/04/25 00:24:12;;;;;;;2.38;1.58;;;;;;;;;;5093382;28;20024;-77
2023/04/25 00:26:38;;;;;;;2.17;1.52;;;;;;;;;;5089879;28;20397;-77
2023/04/25 00:29:04;;;;;;;2.95;1.92;;;;;;;;;;5088842;28;20024;-77
2023/04/25 00:31:30;;;;;;;2.67;1.77;;;;;;;;;;5094952;28;20459;-77
2023/04/25 00:33:56;;;;;;;2.08;1.88;;;;;;;;;;5093944;28;20054;-77
2023/04/25 00:36:22;;;;;;;1.42;1.33;;;;;;;;;;5093790;28;20078;-77
2023/04/25 00:38:48;;;;;;;5.15;2.40;;;;;;;;;;5095472;28;20494;-77
2023/04/25 00:41:15;;;;;;;1.52;1.42;;;;;;;;;;5077958;28;20026;-76
2023/04/25 00:43:41;;;;;;;4.38;2.42;;;;;;;;;;5068840;28;20029;-77
2023/04/25 00:46:07;;;;;;;7.13;1.40;;;;;;;;;;5068143;28;20032;-76
2023/04/25 00:48:33;;;;;;;2.55;1.73;;;;;;;;;;5069587;28;20024;-77
2023/04/25 00:51:00;;;;;;;1.77;1.67;;;;;;;;;;5069941;28;20046;-77
2023/04/25 00:53:27;;;;;;;1.70;1.60;;;;;;;;;;5068259;28;20028;-77
2023/04/25 00:55:54;;;;;;;5.10;1.90;;;;;;;;;;5069212;28;20192;-75
2023/04/25 00:58:21;;;;;;;4.10;1.80;;;;;;;;;;5066821;28;20033;-77
2023/04/25 01:00:48;;;;;;;7.15;2.20;;;;;;;;;;5067091;28;20471;-77
2023/04/25 01:03:15;;;;;;;6.32;1.83;;;;;;;;;;5068995;28;20063;-76
2023/04/25 01:05:42;;;;;;;1.77;1.67;;;;;;;;;;5068179;28;20342;-76
2023/04/25 01:08:08;;;;;;;4.68;2.13;;;;;;;;;;5067203;28;20434;-77
2023/04/25 01:10:34;;;;;;;2.08;1.45;;;;;;;;;;5068697;28;20202;-77
2023/04/25 01:13:00;;;;;;;1.67;1.42;;;;;;;;;;5068454;28;20250;-76
2023/04/25 01:15:26;;;;;;;4.45;1.60;;;;;;;;;;5069045;28;20020;-76
2023/04/25 01:17:52;;;;;;;3.60;1.92;;;;;;;;;;5069460;28;20470;-77
2023/04/25 01:20:22;;;;;;;3.60;2.45;;;;;;;;;;5070508;28;20041;-75
2023/04/25 01:22:48;;;;;;;2.53;2.03;;;;;;;;;;5070503;28;20033;-77
2023/04/25 01:25:14;;;;;;;6.60;2.42;;;;;;;;;;5069136;28;20051;-76
2023/04/25 01:27:40;;;;;;;2.67;1.70;;;;;;;;;;5081640;28;20024;-75
2023/04/25 01:30:07;;;;;;;2.50;2.03;;;;;;;;;;5093444;27;20262;-75
2023/04/25 01:32:38;;;;;;;2.53;1.58;;;;;;;;;;5072204;28;20108;-75
2023/04/25 01:35:11;;;;;;;4.32;2.60;;;;;;;;;;5074551;28;20073;-75
2023/04/25 01:37:40;;;;;;;3.55;1.88;;;;;;;;;;5092933;28;20077;-75
2023/04/25 01:40:07;;;;;;;2.33;1.52;;;;;;;;;;5091352;28;20032;-75
2023/04/25 01:42:34;;;;;;;3.22;2.03;;;;;;;;;;5092192;28;20036;-74
2023/04/25 01:45:01;;;;;;;6.72;2.42;;;;;;;;;;5106788;28;20028;-76
2023/04/25 01:47:27;;;;;;;4.90;2.05;;;;;;;;;;5107756;28;20035;-75
2023/04/25 01:49:53;;;;;;;4.68;1.50;;;;;;;;;;5091462;28;20487;-74
2023/04/25 01:52:19;;;;;;;3.22;2.15;;;;;;;;;;5106722;28;20032;-74
2023/04/25 01:54:45;;;;;;;2.22;2.10;;;;;;;;;;5107096;28;20032;-74
2023/04/25 01:57:12;;;;;;;3.30;2.05;;;;;;;;;;5091696;28;20020;-75
2023/04/25 01:59:38;;;;;;;2.58;2.05;;;;;;;;;;5089158;28;20021;-75
2023/04/25 02:02:04;;;;;;;7.80;2.20;;;;;;;;;;5106982;28;20036;-76
2023/04/25 02:04:31;;;;;;;4.53;1.95;;;;;;;;;;5107003;28;20028;-76
2023/04/25 02:06:57;;;;;;;3.60;2.35;;;;;;;;;;5091381;28;20035;-75
2023/04/25 02:09:23;;;;;;;3.03;1.67;;;;;;;;;;5106263;28;20302;-75
2023/04/25 02:11:49;;;;;;;2.00;1.80;;;;;;;;;;5091089;28;20426;-76
2023/04/25 02:14:15;;;;;;;2.50;2.30;;;;;;;;;;5106209;28;20111;-76
2023/04/25 02:16:43;;;;;;;7.85;2.15;;;;;;;;;;5090897;28;20024;-76
2023/04/25 02:19:09;;;;;;;2.53;2.33;;;;;;;;;;5091369;28;20028;-75
2023/04/25 02:21:36;;;;;;;2.33;2.15;;;;;;;;;;5090876;28;20086;-75
2023/04/25 02:24:02;;;;;;;4.40;2.05;;;;;;;;;;5090725;28;20047;-74
2023/04/25 02:26:28;;;;;;;5.93;2.13;;;;;;;;;;5106149;28;20023;-75
2023/04/25 02:28:54;;;;;;;2.33;2.03;;;;;;;;;;5105783;28;20020;-74
2023/04/25 02:31:20;;;;;;;3.13;2.20;;;;;;;;;;5090825;28;20020;-75
2023/04/25 02:33:46;;;;;;;4.05;1.80;;;;;;;;;;5106736;28;20272;-76
2023/04/25 02:36:12;;;;;;;2.30;1.77;;;;;;;;;;5091645;28;20412;-76
2023/04/25 02:38:38;;;;;;;2.85;2.15;;;;;;;;;;5091198;28;20020;-75
2023/04/25 02:41:05;;;;;;;3.53;1.90;;;;;;;;;;5090860;28;20039;-76
2023/04/25 02:43:31;;;;;;;1.98;1.77;;;;;;;;;;5090599;28;20376;-76
2023/04/25 02:45:57;;;;;;;7.68;1.92;;;;;;;;;;5106366;28;20458;-76
2023/04/25 02:48:23;;;;;;;3.78;2.33;;;;;;;;;;5090222;28;20062;-75
2023/04/25 02:50:49;;;;;;;5.22;1.90;;;;;;;;;;5088765;28;20480;-75
2023/04/25 02:53:15;;;;;;;1.83;1.73;;;;;;;;;;5088606;28;20066;-74
2023/04/25 02:55:41;;;;;;;1.95;1.65;;;;;;;;;;5088365;28;20445;-75
2023/04/25 02:58:07;;;;;;;4.80;1.65;;;;;;;;;;5103779;28;20120;-75
2023/04/25 03:00:33;;;;;;;4.80;2.05;;;;;;;;;;5088341;28;20081;-75
2023/04/25 03:02:59;;;;;;;5.97;2.58;;;;;;;;;;5104180;28;20040;-75
2023/04/25 03:05:25;;;;;;;7.47;3.38;;;;;;;;;;5089369;28;20013;-74
2023/04/25 03:07:51;;;;;;;5.97;2.50;;;;;;;;;;5089097;28;20079;-75
2023/04/25 03:10:17;;;;;;;5.35;2.65;;;;;;;;;;5089613;28;20473;-77
2023/04/25 03:12:43;;;;;;;4.10;2.17;;;;;;;;;;5108232;28;20060;-76
2023/04/25 03:15:09;;;;;;;3.40;2.33;;;;;;;;;;5092054;28;20412;-74
2023/04/25 03:17:35;;;;;;;2.85;2.42;;;;;;;;;;5108504;28;20024;-75
2023/04/25 03:20:05;;;;;;;3.38;2.17;;;;;;;;;;5093028;28;20028;-74
2023/04/25 03:22:31;;;;;;;;;;;;;;;;;;5109734;28;20036;-75
2023/04/25 03:24:56;;;;;;;3.78;2.20;;;;;;;;;;5094959;28;19925;-75
2023/04/25 03:27:22;;;;;;;7.00;2.42;;;;;;;;;;5094973;28;20020;-75
2023/04/25 03:29:49;;;;;;;3.65;2.20;;;;;;;;;;5094767;28;20511;-74
2023/04/25 03:32:14;;;;;;;3.38;2.35;;;;;;;;;;5094509;28;20468;-75
2023/04/25 03:34:41;;;;;;;4.93;2.22;;;;;;;;;;5109890;28;20024;-74
2023/04/25 03:37:07;;;;;;;3.33;2.25;;;;;;;;;;5094203;28;20043;-75
2023/04/25 03:39:33;;;;;;;2.08;1.63;;;;;;;;;;5109856;28;20020;-75
2023/04/25 03:41:59;;;;;;;2.83;2.00;;;;;;;;;;5109806;28;20058;-76
2023/04/25 03:44:25;;;;;;;7.68;2.75;;;;;;;;;;5093710;28;20507;-76
2023/04/25 03:46:51;;;;;;;2.72;2.03;;;;;;;;;;5094265;28;20468;-75
2023/04/25 03:49:17;;;;;;;6.82;2.47;;;;;;;;;;5094384;28;20032;-74
2023/04/25 03:51:43;;;;;;;2.95;2.03;;;;;;;;;;5094429;28;20078;-76
2023/04/25 03:54:09;;;;;;;3.20;2.20;;;;;;;;;;5094087;28;20077;-74
2023/04/25 03:56:35;;;;;;;3.63;1.88;;;;;;;;;;5109677;28;20570;-76
2023/04/25 03:59:01;;;;;;;4.63;2.00;;;;;;;;;;5109085;28;20525;-75
2023/04/25 04:01:27;;;;;;;4.60;2.10;;;;;;;;;;5109408;28;20028;-74
2023/04/25 04:03:53;;;;;;;3.53;2.10;;;;;;;;;;5109620;28;20096;-75
2023/04/25 04:06:20;;;;;;;2.47;2.28;;;;;;;;;;5109454;28;20032;-76
2023/04/25 04:08:46;;;;;;;3.22;2.15;;;;;;;;;;5109585;28;20028;-76
2023/04/25 04:11:12;;;;;;;4.85;2.38;;;;;;;;;;5094108;28;20480;-75
2023/04/25 04:13:38;;;;;;;1.92;1.63;;;;;;;;;;5093724;28;20036;-75
2023/04/25 04:16:05;;;;;;;5.40;2.20;;;;;;;;;;5094911;28;20472;-76
2023/04/25 04:18:31;;;;;;;3.13;2.03;;;;;;;;;;5096076;28;20028;-77
2023/04/25 04:20:58;;;;;;;2.60;2.15;;;;;;;;;;5094903;28;20040;-76
2023/04/25 04:23:24;;;;;;;4.80;2.33;;;;;;;;;;5110500;28;20043;-75
2023/04/25 04:25:50;;;;;;;1.88;1.30;;;;;;;;;;5095656;28;20460;-77
2023/04/25 04:28:17;;;;;;;2.63;2.22;;;;;;;;;;5094804;28;20534;-76
2023/04/25 04:30:46;;;;;;;3.25;1.90;;;;;;;;;;5113205;28;20062;-75
2023/04/25 04:33:12;;;;;;;4.10;2.55;;;;;;;;;;5094223;28;20031;-76
2023/04/25 04:35:38;;;;;;;2.58;1.67;;;;;;;;;;5109268;28;20024;-76
2023/04/25 04:38:04;;;;;;;1.98;1.02;;;;;;;;;;5108436;28;20434;-75
2023/04/25 04:40:31;;;;;;;2.15;1.33;;;;;;;;;;5108371;28;20049;-74
2023/04/25 04:42:57;;;;;;;1.83;1.30;;;;;;;;;;5092289;28;20055;-73
2023/04/25 04:45:23;;;;;;;4.60;2.88;;;;;;;;;;5108045;28;20468;-73
2023/04/25 04:47:49;;;;;;;4.03;2.28;;;;;;;;;;5092663;28;20027;-73
2023/04/25 04:50:16;;;;;;;3.50;2.47;;;;;;;;;;5108116;28;20028;-74
2023/04/25 04:52:42;;;;;;;5.50;2.00;;;;;;;;;;5092313;28;20024;-73
2023/04/25 04:55:08;;;;;;;3.30;2.10;;;;;;;;;;5108077;28;20449;-74
2023/04/25 04:57:35;;;;;;;3.50;1.45;;;;;;;;;;5092155;28;20024;-75
2023/04/25 05:00:04;;;;;;;2.42;1.77;;;;;;;;;;5107852;28;20042;-73
2023/04/25 05:02:30;;;;;;;1.20;1.10;;;;;;;;;;5107851;28;20085;-75
2023/04/25 05:04:56;;;;;;;3.28;1.17;;;;;;;;;;5092261;28;20036;-74
2023/04/25 05:07:22;;;;;;;2.35;0.80;;;;;;;;;;5093163;28;20028;-75
2023/04/25 05:09:48;;;;;;;0.70;0.70;;;;;;;;;;5094963;28;20438;-76
2023/04/25 05:12:14;;;;;;;3.42;1.00;;;;;;;;;;5095871;28;20020;-76
2023/04/25 05:14:40;;;;;;;1.00;1.00;;;;;;;;;;5095055;28;20028;-76
2023/04/25 05:17:08;;;;;;;0.68;0.68;;;;;;;;;;5110391;28;20036;-77
2023/04/25 05:19:34;;;;;;;1.48;1.38;;;;;;;;;;5110168;28;20020;-76
2023/04/25 05:22:00;;;;;;;2.45;0.70;;;;;;;;;;5108922;28;20404;-75
2023/04/25 05:24:26;;;;;;;0.90;0.90;;;;;;;;;;5093595;28;20024;-75
2023/04/25 05:26:52;;;;;;;1.65;0.70;;;;;;;;;;5109428;28;20028;-74
2023/04/25 05:29:18;;;;;;;0.50;0.50;;;;;;;;;;5094681;28;20537;-75
2023/04/25 05:31:45;;;;;;;0.55;0.55;;;;;;;;;;5094952;28;20024;-74
2023/04/25 05:34:11;;;;;;;0.63;0.57;;;;;;;;;;5095663;28;20023;-74
2023/04/25 05:36:37;;;;;;;3.35;0.88;;;;;;;;;;5095093;28;20472;-74
2023/04/25 05:39:04;;;;;;;1.35;0.75;;;;;;;;;;5093786;28;20081;-75
2023/04/25 05:41:30;;;;;;;0.50;0.50;;;;;;;;;;5109581;28;20024;-75
2023/04/25 05:43:56;;;;;;;3.17;1.30;;;;;;;;;;5092959;28;20395;-74
2023/04/25 05:46:22;;;;;;;0.95;0.63;;;;;;;;;;5108562;28;20049;-76
2023/04/25 05:48:48;;;;;;;2.53;0.52;;;;;;;;;;5093363;28;20020;-75
2023/04/25 05:51:14;;;;;;;0.60;0.60;;;;;;;;;;5108055;28;20392;-75
2023/04/25 05:53:40;;;;;;;0.57;0.50;;;;;;;;;;5092872;28;20020;-75
2023/04/25 05:56:06;;;;;;;1.55;0.75;;;;;;;;;;5092605;28;20116;-75
2023/04/25 05:58:32;;;;;;;0.50;0.50;;;;;;;;;;5107073;28;20028;-75
2023/04/25 06:00:58;;;;;;;0.70;0.65;;;;;;;;;;5091554;28;20107;-75
2023/04/25 06:03:24;;;;;;;0.98;0.60;;;;;;;;;;5091309;28;20032;-75
2023/04/25 06:05:50;;;;;;;0.82;0.60;;;;;;;;;;5091736;28;20023;-75
2023/04/25 06:08:16;;;;;;;0.80;0.65;;;;;;;;;;5107248;28;20047;-76
2023/04/25 06:10:42;;;;;;;0.85;0.75;;;;;;;;;;5091625;28;20035;-75
2023/04/25 06:13:10;;;;;;;0.95;0.95;;;;;;;;;;5106785;28;20434;-75
2023/04/25 06:15:36;;;;;;;0.60;0.60;;;;;;;;;;5091305;28;20028;-76
2023/04/25 06:18:02;;;;;;;1.75;0.60;;;;;;;;;;5107405;28;20024;-76
2023/04/25 06:20:28;;;;;;;3.95;1.73;;;;;;;;;;5106511;28;20036;-76
2023/04/25 06:22:54;;;;;;;0.85;0.60;;;;;;;;;;5106332;28;20038;-75
2023/04/25 06:25:20;;;;;;;1.02;0.80;;;;;;;;;;5091078;28;20056;-75
2023/04/25 06:27:46;;;;;;;4.38;2.10;;;;;;;;;;5106625;28;20024;-75
2023/04/25 06:30:13;;;;;;;0.93;0.80;;;;;;;;;;5090809;28;20033;-76
2023/04/25 06:32:39;;;;;;;1.13;1.00;;;;;;;;;;5091138;28;20356;-76
2023/04/25 06:35:05;;;;;;;2.55;1.70;;;;;;;;;;5090583;28;20468;-76
2023/04/25 06:37:31;;;;;;;0.80;0.80;;;;;;;;;;5106022;28;20571;-76
2023/04/25 06:39:57;;;;;;;0.60;0.60;;;;;;;;;;5106728;28;20059;-76
2023/04/25 06:42:23;;;;;;;1.27;0.77;;;;;;;;;;5090555;28;20040;-76
2023/04/25 06:44:49;;;;;;;2.83;1.77;;;;;;;;;;5090122;28;20021;-76
2023/04/25 06:47:15;;;;;;;3.78;1.98;;;;;;;;;;5090704;28;20028;-74
2023/04/25 06:49:41;;;;;;;3.58;1.63;;;;;;;;;;5090738;28;20020;-74
2023/04/25 06:52:08;;;;;;;3.03;1.45;;;;;;;;;;5090982;28;20419;-75
2023/04/25 06:54:34;;;;;;;1.92;1.60;;;;;;;;;;5106428;28;20114;-76
2023/04/25 06:57:00;;;;;;;2.42;1.70;;;;;;;;;;5102120;28;20062;-76
2023/04/25 06:59:26;;;;;;;2.42;1.80;;;;;;;;;;5072204;28;20529;-75
2023/04/25 07:01:52;;;;;;;1.00;1.00;;;;;;;;;;5070711;28;20032;-76
2023/04/25 07:04:19;;;;;;;34.13;14.98;;;;;;;;;;5070227;28;20051;-75
2023/04/25 07:06:47;;;;;;;8.35;4.65;;;;;;;;;;5069437;28;20016;-75
2023/04/25 07:09:13;;;;;;;2.92;1.63;;;;;;;;;;5070566;28;20499;-76
2023/04/25 07:11:39;;;;;;;1.15;1.10;;;;;;;;;;5070577;28;20024;-78
2023/04/25 07:14:05;;;;;;;1.40;1.23;;;;;;;;;;5069821;28;20025;-78
2023/04/25 07:16:31;;;;;;;1.48;1.17;;;;;;;;;;5087405;28;20029;-75
2023/04/25 07:18:57;;;;;;;0.68;0.68;;;;;;;;;;5069404;28;20068;-76
2023/04/25 07:21:23;;;;;;;2.67;1.40;;;;;;;;;;5087538;28;20388;-77
2023/04/25 07:23:49;;;;;;;1.38;1.27;;;;;;;;;;5070819;28;20116;-76
2023/04/25 07:26:15;;;;;;;1.60;1.27;;;;;;;;;;5070485;28;20048;-78
2023/04/25 07:28:41;;;;;;;1.00;1.00;;;;;;;;;;5069997;28;20051;-79
2023/04/25 07:31:07;;;;;;;1.75;1.30;;;;;;;;;;5073254;28;20380;-79
2023/04/25 07:33:34;;;;;;;7.03;2.35;;;;;;;;;;5071115;28;20107;-78
2023/04/25 07:36:00;;;;;;;2.58;1.20;;;;;;;;;;5069285;28;20025;-75
2023/04/25 07:38:26;;;;;;;4.30;1.35;;;;;;;;;;5085669;28;20468;-76
2023/04/25 07:40:52;;;;;;;3.08;1.63;;;;;;;;;;5090268;28;20099;-79
2023/04/25 07:43:18;;;;;;;1.52;1.33;;;;;;;;;;5088338;28;20115;-79
2023/04/25 07:45:45;;;;;;;2.83;1.13;;;;;;;;;;5088267;28;20092;-79
2023/04/25 07:48:11;;;;;;;8.55;2.30;;;;;;;;;;5089856;28;20035;-77
2023/04/25 07:50:37;;;;;;;3.13;1.55;;;;;;;;;;5086571;28;20663;-79
2023/04/25 07:53:03;;;;;;;2.58;1.25;;;;;;;;;;5089672;28;20035;-80
2023/04/25 07:55:29;;;;;;;2.53;1.05;;;;;;;;;;5086923;28;20476;-78
2023/04/25 07:57:55;;;;;;;1.20;1.10;;;;;;;;;;5106055;28;20020;-79
2023/04/25 08:00:21;;;;;;;1.20;1.13;;;;;;;;;;5095341;28;20026;-77
2023/04/25 08:02:47;;;;;;;0.73;0.73;;;;;;;;;;5092290;28;20480;-80
2023/04/25 08:05:14;;;;;;;0.80;0.80;;;;;;;;;;5094577;28;20024;-79
2023/04/25 08:07:41;;;;;;;1.33;1.00;;;;;;;;;;5086511;28;20470;-80
2023/04/25 08:10:08;;;;;;;0.93;0.82;;;;;;;;;;5094366;28;20065;-79
2023/04/25 08:12:34;;;;;;;2.30;1.00;;;;;;;;;;5096618;28;20043;-79
2023/04/25 08:15:00;;;;;;;1.48;1.23;;;;;;;;;;5092067;28;20032;-78
2023/04/25 08:17:26;;;;;;;2.92;1.15;;;;;;;;;;5087662;28;20044;-78
2023/04/25 08:19:52;;;;;;;3.22;1.00;;;;;;;;;;5087594;28;20419;-77
2023/04/25 08:22:18;;;;;;;2.47;0.80;;;;;;;;;;5091269;28;20028;-79
2023/04/25 08:24:44;;;;;;;0.93;0.93;;;;;;;;;;5092228;28;20015;-79
2023/04/25 08:27:10;;;;;;;1.20;1.10;;;;;;;;;;5095881;28;20020;-78
2023/04/25 08:29:37;;;;;;;0.85;0.73;;;;;;;;;;5101808;28;20182;-79
2023/04/25 08:32:03;;;;;;;1.05;1.00;;;;;;;;;;5102496;28;20024;-80
2023/04/25 08:34:29;;;;;;;0.57;0.57;;;;;;;;;;5101515;28;20127;-79
2023/04/25 08:36:55;;;;;;;0.70;0.70;;;;;;;;;;5101943;28;20055;-78
2023/04/25 08:39:21;;;;;;;3.00;0.95;;;;;;;;;;5101602;28;20031;-79
2023/04/25 08:41:47;;;;;;;2.50;0.88;;;;;;;;;;5103308;28;20036;-78
2023/04/25 08:44:13;;;;;;;1.58;0.90;;;;;;;;;;5102085;28;20031;-79
2023/04/25 08:46:42;;;;;;;2.50;0.80;;;;;;;;;;5099223;28;20032;-78
2023/04/25 08:49:09;;;;;;;1.13;1.00;;;;;;;;;;5100124;28;20031;-78
2023/04/25 08:51:36;;;;;;;3.28;0.88;;;;;;;;;;5101666;28;20070;-76
2023/04/25 08:54:10;;;;;;;1.92;1.42;;;;;;;;;;5095262;28;20087;-77
2023/04/25 08:56:36;;;;;;;0.70;0.70;;;;;;;;;;5097790;28;20043;-79
2023/04/25 08:59:02;;;;;;;1.08;0.90;;;;;;;;;;5096174;28;20215;-77
2023/04/25 09:01:28;;;;;;;1.35;1.00;;;;;;;;;;5100647;28;20011;-78
2023/04/25 09:03:54;;;;;;;0.80;0.80;;;;;;;;;;5101890;28;20021;-77
2023/04/25 09:06:21;;;;;;;0.80;0.80;;;;;;;;;;5100027;28;20043;-76
2023/04/25 09:08:50;;;;;;;0.85;0.80;;;;;;;;;;5102218;28;20020;-78
2023/04/25 09:11:16;;;;;;;1.53;0.90;;;;;;;;;;5102099;28;20363;-77
2023/04/25 09:13:42;;;;;;;1.05;0.68;;;;;;;;;;5094845;28;20262;-79
2023/04/25 09:16:08;;;;;;;2.20;0.80;;;;;;;;;;5090598;28;20039;-79
2023/04/25 09:18:35;;;;;;;1.38;0.80;;;;;;;;;;5091774;28;20020;-77
2023/04/25 09:21:11;;;;;;;0.60;0.60;;;;;;;;;;5093708;28;20163;-76
2023/04/25 09:23:47;;;;;;;1.48;1.00;;;;;;;;;;5091008;28;20043;-77
2023/04/25 09:26:17;;;;;;;1.35;0.50;;;;;;;;;;5093075;28;20073;-78
2023/04/25 09:28:43;;;;;;;2.38;0.88;;;;;;;;;;5090887;28;20571;-75
2023/04/25 09:31:13;;;;;;;0.70;0.70;;;;;;;;;;5075543;28;20380;-76
2023/04/25 09:33:39;;;;;;;0.70;0.70;;;;;;;;;;5092779;28;20106;-76
2023/04/25 09:36:10;;;;;;;1.85;0.95;;;;;;;;;;5089397;28;20024;-77
2023/04/25 09:38:43;;;;;;;0.80;0.80;;;;;;;;;;5090463;28;20020;-77
2023/04/25 09:41:10;;;;;;;3.03;1.00;;;;;;;;;;5091522;28;20036;-76
2023/04/25 09:43:36;;;;;;;4.68;1.00;;;;;;;;;;5094018;28;20053;-77
2023/04/25 09:46:03;;;;;;;0.75;0.75;;;;;;;;;;5090167;28;20084;-75
2023/04/25 09:48:29;;;;;;;1.20;1.10;;;;;;;;;;5093795;28;20035;-75
2023/04/25 09:51:05;;;;;;;0.70;0.70;;;;;;;;;;5085144;28;20028;-78
2023/04/25 09:53:32;;;;;;;1.70;1.13;;;;;;;;;;5091173;28;20016;-76
2023/04/25 09:56:00;;;;;;;0.80;0.80;;;;;;;;;;5089142;28;20031;-76
2023/04/25 09:58:26;;;;;;;1.38;0.90;;;;;;;;;;5092451;28;20103;-77
2023/04/25 10:00:52;;;;;;;3.13;0.80;;;;;;;;;;5077186;28;20388;-78
2023/04/25 10:03:19;;;;;;;0.82;0.82;;;;;;;;;;5067182;28;20458;-77
2023/04/25 10:05:46;;;;;;;1.17;1.08;;;;;;;;;;5080517;28;20016;-76
2023/04/25 10:08:12;;;;;;;0.93;0.93;;;;;;;;;;5089378;28;20024;-76
2023/04/25 10:10:41;;;;;;;1.83;1.10;;;;;;;;;;5079177;28;20040;-77
2023/04/25 10:13:08;;;;;;;1.08;1.02;;;;;;;;;;5090788;28;20543;-77
2023/04/25 10:15:36;;;;;;;1.60;1.02;;;;;;;;;;5078659;28;20048;-76
2023/04/25 10:18:02;;;;;;;0.73;0.73;;;;;;;;;;5080302;28;20073;-75
2023/04/25 10:20:29;;;;;;;2.95;1.33;;;;;;;;;;5084858;28;20036;-77
2023/04/25 10:22:57;;;;;;;5.10;1.35;;;;;;;;;;5086086;28;20508;-76
2023/04/25 10:25:23;;;;;;;1.13;0.88;;;;;;;;;;5085854;28;20259;-75
2023/04/25 10:27:54;;;;;;;1.42;0.88;;;;;;;;;;5084284;28;20025;-76
2023/04/25 10:30:20;;;;;;;1.02;0.80;;;;;;;;;;5067829;28;20055;-75
2023/04/25 10:32:49;;;;;;;1.08;1.08;;;;;;;;;;5065774;28;20793;-77
2023/04/25 10:35:15;;;;;;;;;;;;;;;;;;5085679;28;20448;-76
2023/04/25 10:37:58;;;;;;;1.80;0.95;;;;;;;;;;5091234;28;19923;-76
2023/04/25 10:40:24;;;;;;;1.10;1.00;;;;;;;;;;5109449;28;20024;-76
2023/04/25 10:42:52;;;;;;;1.85;0.90;;;;;;;;;;5098121;28;20094;-77
2023/04/25 10:45:18;;;;;;;2.35;1.02;;;;;;;;;;5098364;28;20051;-76
2023/04/25 10:47:44;;;;;;;1.60;1.00;;;;;;;;;;5096299;28;20020;-78
2023/04/25 10:50:11;;;;;;;2.47;1.17;;;;;;;;;;5096942;28;20468;-78
2023/04/25 10:52:40;;;;;;;1.40;1.02;;;;;;;;;;5098613;28;20024;-78
2023/04/25 10:55:06;;;;;;;2.10;1.10;;;;;;;;;;5099557;28;20375;-77
2023/04/25 10:57:38;;;;;;;2.58;1.15;;;;;;;;;;5097436;28;20099;-78
2023/04/25 11:00:05;;;;;;;1.55;0.90;;;;;;;;;;5097694;28;20122;-77
2023/04/25 11:02:31;;;;;;;1.30;0.85;;;;;;;;;;5090994;28;20036;-75
2023/04/25 11:04:57;;;;;;;0.70;0.70;;;;;;;;;;5083293;28;20030;-75
2023/04/25 11:07:44;;;;;;;1.48;0.73;;;;;;;;;;5096761;28;20523;-77
2023/04/25 11:10:10;;;;;;;0.70;0.70;;;;;;;;;;5090855;28;20035;-78
2023/04/25 11:12:36;;;;;;;2.15;0.90;;;;;;;;;;5083659;28;20101;-76
2023/04/25 11:15:07;;;;;;;1.45;0.85;;;;;;;;;;5099759;28;20028;-78
2023/04/25 11:17:33;;;;;;;0.77;0.77;;;;;;;;;;5100164;28;20117;-77
2023/04/25 11:19:59;;;;;;;0.93;0.70;;;;;;;;;;5094313;28;20435;-79
2023/04/25 11:22:27;;;;;;;1.20;0.95;;;;;;;;;;5088403;28;20040;-75
2023/04/25 11:24:53;;;;;;;0.93;0.75;;;;;;;;;;5079198;28;20128;-77
2023/04/25 11:27:19;;;;;;;2.78;0.95;;;;;;;;;;5090640;28;20373;-76
2023/04/25 11:29:47;;;;;;;2.70;0.70;;;;;;;;;;5096240;28;20047;-75
2023/04/25 11:32:14;;;;;;;3.43;1.03;;;;;;;;;;5089733;28;20028;-77
2023/04/25 11:34:43;;;;;;;0.60;0.60;;;;;;;;;;5098793;28;20020;-76
2023/04/25 11:37:11;;;;;;;1.35;0.65;;;;;;;;;;5087905;28;20032;-79
2023/04/25 11:39:37;;;;;;;1.13;0.85;;;;;;;;;;5098340;28;20028;-77
2023/04/25 11:42:05;;;;;;;1.05;0.85;;;;;;;;;;5089600;28;20081;-75
2023/04/25 11:44:31;;;;;;;1.40;0.65;;;;;;;;;;5096442;28;20119;-76
2023/04/25 11:46:57;;;;;;;1.38;0.40;;;;;;;;;;5084860;28;20107;-77
2023/04/25 11:49:24;;;;;;;1.10;0.60;;;;;;;;;;5090932;28;20032;-74
2023/04/25 11:51:51;;;;;;;2.50;0.93;;;;;;;;;;5088766;28;20024;-78
2023/04/25 11:54:17;;;;;;;1.35;0.77;;;;;;;;;;5096489;28;20085;-78
2023/04/25 11:56:44;;;;;;;0.60;0.60;;;;;;;;;;5084532;28;20131;-78
2023/04/25 11:59:10;;;;;;;0.88;0.52;;;;;;;;;;5090447;28;20039;-77
2023/04/25 12:01:37;;;;;;;2.67;0.50;;;;;;;;;;5103335;28;20040;-79
2023/04/25 12:04:13;;;;;;;1.02;0.85;;;;;;;;;;5080132;28;20124;-76
2023/04/25 12:06:43;;;;;;;2.25;0.80;;;;;;;;;;5090953;28;20028;-76
2023/04/25 12:09:10;;;;;;;2.22;0.90;;;;;;;;;;5092577;28;20066;-74
2023/04/25 12:11:47;;;;;;;0.40;0.40;;;;;;;;;;5092001;28;20024;-75
2023/04/25 12:14:20;;;;;;;0.45;0.45;;;;;;;;;;5089763;28;20066;-75
2023/04/25 12:16:47;;;;;;;1.55;0.90;;;;;;;;;;5086932;28;20081;-74
2023/04/25 12:19:17;;;;;;;0.73;0.70;;;;;;;;;;5089765;28;20024;-74
2023/04/25 12:21:43;;;;;;;5.03;0.80;;;;;;;;;;5075222;28;20044;-75
2023/04/25 12:24:13;;;;;;;1.05;0.98;;;;;;;;;;5082722;28;20035;-75
2023/04/25 12:26:58;;;;;;;1.35;1.20;;;;;;;;;;5076065;28;20056;-75
2023/04/25 12:29:25;;;;;;;1.23;0.98;;;;;;;;;;5068042;28;20322;-75
2023/04/25 12:31:52;;;;;;;1.15;0.70;;;;;;;;;;5086722;28;20086;-75
2023/04/25 12:34:19;;;;;;;1.77;1.00;;;;;;;;;;5097695;28;20035;-75
2023/04/25 12:36:46;;;;;;;0.65;0.65;;;;;;;;;;5092502;28;20059;-76
2023/04/25 12:39:22;;;;;;;1.08;0.98;;;;;;;;;;5090513;28;20095;-77
2023/04/25 12:41:48;;;;;;;1.83;0.88;;;;;;;;;;5091858;28;20161;-79
2023/04/25 12:44:14;;;;;;;1.08;0.88;;;;;;;;;;5092420;28;20028;-76
2023/04/25 12:46:41;;;;;;;2.35;1.05;;;;;;;;;;5092668;28;20028;-78
2023/04/25 12:49:08;;;;;;;1.95;1.35;;;;;;;;;;5092120;28;20034;-77
2023/04/25 12:51:34;;;;;;;1.00;1.00;;;;;;;;;;5093144;28;20028;-77
2023/04/25 12:54:00;;;;;;;1.83;1.10;;;;;;;;;;5091955;28;20026;-76
2023/04/25 12:56:27;;;;;;;1.55;0.90;;;;;;;;;;5088690;28;20032;-76
2023/04/25 12:58:53;;;;;;;0.88;0.88;;;;;;;;;;5091880;28;20024;-79
2023/04/25 13:01:19;;;;;;;0.90;0.90;;;;;;;;;;5097136;28;20112;-79
2023/04/25 13:03:46;;;;;;;0.63;0.63;;;;;;;;;;5101617;28;20055;-78
2023/04/25 13:06:12;;;;;;;1.75;0.50;;;;;;;;;;5100520;28;20028;-76
2023/04/25 13:08:39;;;;;;;1.75;0.50;;;;;;;;;;5101669;28;20073;-79
2023/04/25 13:11:05;;;;;;;0.40;0.38;;;;;;;;;;5099124;28;20089;-77
2023/04/25 13:13:31;;;;;;;0.55;0.55;;;;;;;;;;5082198;28;20254;-77
2023/04/25 13:15:57;;;;;;;0.30;0.30;;;;;;;;;;5082310;28;20355;-77
2023/04/25 13:18:26;;;;;;;0.20;0.20;;;;;;;;;;5080808;28;20044;-77
2023/04/25 13:20:53;;;;;;;0.50;0.50;;;;;;;;;;5078071;28;20053;-78
2023/04/25 13:23:19;;;;;;;0.30;0.30;;;;;;;;;;5082385;28;20064;-80
2023/04/25 13:25:45;;;;;;;0.13;0.13;;;;;;;;;;5082418;28;20021;-79
2023/04/25 13:28:11;;;;;;;0.20;0.20;;;;;;;;;;5102970;28;20303;-80
2023/04/25 13:30:37;;;;;;;0.20;0.20;;;;;;;;;;5096532;28;20214;-77
2023/04/25 13:33:03;;;;;;;0.30;0.30;;;;;;;;;;5082657;28;20232;-80
2023/04/25 13:35:30;;;;;;;0.30;0.30;;;;;;;;;;5081907;28;20032;-78
2023/04/25 13:37:56;;;;;;;0.17;0.17;;;;;;;;;;5080465;28;20115;-77
2023/04/25 13:40:22;;;;;;;1.02;0.40;;;;;;;;;;5082214;28;20020;-78
2023/04/25 13:42:48;;;;;;;0.30;0.30;;;;;;;;;;5097342;28;20062;-77
2023/04/25 13:45:15;;;;;;;0.50;0.50;;;;;;;;;;5099684;28;20024;-75
2023/04/25 13:47:42;;;;;;;0.55;0.40;;;;;;;;;;5100336;28;20040;-77
2023/04/25 13:50:08;;;;;;;0.47;0.47;;;;;;;;;;5099561;28;20387;-80
2023/04/25 13:52:34;;;;;;;0.88;0.73;;;;;;;;;;5099416;28;20023;-78
2023/04/25 13:55:03;;;;;;;3.50;0.70;;;;;;;;;;5101609;28;20280;-78
2023/04/25 13:57:30;;;;;;;1.03;0.37;;;;;;;;;;5090221;28;20415;-78
2023/04/25 13:59:56;;;;;;;0.40;0.40;;;;;;;;;;5093540;28;20024;-78
2023/04/25 14:02:22;;;;;;;1.02;0.40;;;;;;;;;;5117774;28;20051;-77
2023/04/25 14:04:48;;;;;;;3.58;0.90;;;;;;;;;;5117096;28;20036;-78
2023/04/25 14:07:17;;;;;;;1.23;0.70;;;;;;;;;;5090559;28;20024;-78
2023/04/25 14:09:44;;;;;;;0.80;0.43;;;;;;;;;;5083021;28;20029;-77
2023/04/25 14:12:10;;;;;;;0.43;0.43;;;;;;;;;;5082257;28;20028;-78
2023/04/25 14:14:37;;;;;;;0.88;0.85;;;;;;;;;;5082136;28;20808;-78
2023/04/25 14:17:03;;;;;;;0.30;0.30;;;;;;;;;;5083384;28;20036;-77
2023/04/25 14:19:30;;;;;;;2.60;0.40;;;;;;;;;;5083330;28;20051;-77
2023/04/25 14:21:56;;;;;;;1.95;0.75;;;;;;;;;;5082878;28;20052;-77
2023/04/25 14:24:23;;;;;;;0.47;0.47;;;;;;;;;;5082576;28;20052;-77
2023/04/25 14:26:49;;;;;;;0.38;0.38;;;;;;;;;;5082145;28;20105;-77
2023/04/25 14:29:15;;;;;;;1.63;0.70;;;;;;;;;;5080864;28;20020;-78
2023/04/25 14:31:41;;;;;;;2.10;0.50;;;;;;;;;;5080079;28;20251;-77
2023/04/25 14:34:08;;;;;;;4.05;1.00;;;;;;;;;;5081608;28;20082;-78
2023/04/25 14:36:34;;;;;;;0.60;0.60;;;;;;;;;;5084430;28;20727;-77
2023/04/25 14:39:00;;;;;;;0.77;0.45;;;;;;;;;;5098185;28;20028;-75
2023/04/25 14:41:26;;;;;;;0.50;0.50;;;;;;;;;;5094399;28;20053;-78